sensor_id;sensor_type;location;lat;lon;timestamp;P1;durP1;ratioP1;P2;durP2;ratioP2
73841;SDS011;62184;52.006;5.924;2023-04-16T00:00:31;21.70;;;9.20;;
73841;SDS011;62184;52.006;5.924;2023-04-16T00:02:58;23.33;;;8.85;;
73841;SDS011;62184;52.006;5.924;2023-04-16T00:05:27;22.35;;;8.82;;
73841;SDS011;62184;52.006;5.924;2023-04-16T00:07:53;23.80;;;8.97;;
73841;SDS011;62184;52.006;5.924;2023-04-16T00:10:19;23.37;;;9.07;;
73841;SDS011;62184;52.006;5.924;2023-04-16T00:12:46;23.50;;;9.27;;
73841;SDS011;62184;52.006;5.924;2023-04-16T00:15:12;25.17;;;9.57;;
73841;SDS011;62184;52.006;5.924;2023-04-16T00:17:39;25.80;;;10.13;;
73841;SDS011;62184;52.006;5.924;2023-04-16T00:20:06;24.08;;;8.85;;
73841;SDS011;62184;52.006;5.924;2023-04-16T00:22:36;22.48;;;10.05;;
73841;SDS011;62184;52.006;5.924;2023-04-16T00:25:03;25.35;;;9.60;;
73841;SDS011;62184;52.006;5.924;2023-04-16T00:27:30;23.17;;;9.30;;
73841;SDS011;62184;52.006;5.924;2023-04-16T00:29:57;23.63;;;9.40;;
73841;SDS011;62184;52.006;5.924;2023-04-16T00:32:23;22.90;;;9.23;;
73841;SDS011;62184;52.006;5.924;2023-04-16T00:34:50;25.00;;;9.70;;
73841;SDS011;62184;52.006;5.924;2023-04-16T00:37:16;26.02;;;10.07;;
73841;SDS011;62184;52.006;5.924;2023-04-16T00:39:45;23.67;;;9.75;;
73841;SDS011;62184;52.006;5.924;2023-04-16T00:42:11;25.08;;;9.35;;
73841;SDS011;62184;52.006;5.924;2023-04-16T00:44:38;26.63;;;9.40;;
73841;SDS011;62184;52.006;5.924;2023-04-16T00:47:04;25.10;;;9.48;;
73841;SDS011;62184;52.006;5.924;2023-04-16T00:49:31;25.20;;;9.80;;
73841;SDS011;62184;52.006;5.924;2023-04-16T00:51:58;27.00;;;9.57;;
73841;SDS011;62184;52.006;5.924;2023-04-16T00:54:25;24.98;;;9.93;;
73841;SDS011;62184;52.006;5.924;2023-04-16T00:56:54;24.73;;;10.07;;
73841;SDS011;62184;52.006;5.924;2023-04-16T00:59:21;23.75;;;9.52;;
73841;SDS011;62184;52.006;5.924;2023-04-16T01:01:47;24.80;;;9.70;;
73841;SDS011;62184;52.006;5.924;2023-04-16T01:04:14;24.45;;;10.25;;
73841;SDS011;62184;52.006;5.924;2023-04-16T01:06:40;26.65;;;9.55;;
73841;SDS011;62184;52.006;5.924;2023-04-16T01:09:07;29.20;;;10.13;;
73841;SDS011;62184;52.006;5.924;2023-04-16T01:11:35;29.10;;;10.90;;
73841;SDS011;62184;52.006;5.924;2023-04-16T01:14:04;33.05;;;10.50;;
73841;SDS011;62184;52.006;5.924;2023-04-16T01:16:30;28.35;;;10.50;;
73841;SDS011;62184;52.006;5.924;2023-04-16T01:18:57;26.73;;;10.70;;
73841;SDS011;62184;52.006;5.924;2023-04-16T01:21:26;29.35;;;10.55;;
73841;SDS011;62184;52.006;5.924;2023-04-16T01:23:53;32.13;;;11.35;;
73841;SDS011;62184;52.006;5.924;2023-04-16T01:26:19;29.50;;;11.13;;
73841;SDS011;62184;52.006;5.924;2023-04-16T01:28:45;36.23;;;11.70;;
73841;SDS011;62184;52.006;5.924;2023-04-16T01:31:12;34.72;;;11.45;;
73841;SDS011;62184;52.006;5.924;2023-04-16T01:33:38;34.97;;;11.82;;
73841;SDS011;62184;52.006;5.924;2023-04-16T01:36:05;31.17;;;11.80;;
73841;SDS011;62184;52.006;5.924;2023-04-16T01:38:34;34.10;;;12.45;;
73841;SDS011;62184;52.006;5.924;2023-04-16T01:41:01;35.57;;;12.57;;
73841;SDS011;62184;52.006;5.924;2023-04-16T01:43:27;32.78;;;12.43;;
73841;SDS011;62184;52.006;5.924;2023-04-16T01:45:58;37.42;;;12.60;;
73841;SDS011;62184;52.006;5.924;2023-04-16T01:48:39;31.45;;;12.93;;
73841;SDS011;62184;52.006;5.924;2023-04-16T01:51:05;31.63;;;12.17;;
73841;SDS011;62184;52.006;5.924;2023-04-16T01:53:34;30.57;;;12.63;;
73841;SDS011;62184;52.006;5.924;2023-04-16T01:56:01;32.05;;;12.50;;
73841;SDS011;62184;52.006;5.924;2023-04-16T01:58:28;32.50;;;13.33;;
73841;SDS011;62184;52.006;5.924;2023-04-16T02:00:55;34.58;;;13.73;;
73841;SDS011;62184;52.006;5.924;2023-04-16T02:03:22;31.48;;;13.32;;
73841;SDS011;62184;52.006;5.924;2023-04-16T02:05:49;35.35;;;13.85;;
73841;SDS011;62184;52.006;5.924;2023-04-16T02:08:15;37.28;;;14.15;;
73841;SDS011;62184;52.006;5.924;2023-04-16T02:10:46;36.97;;;14.63;;
73841;SDS011;62184;52.006;5.924;2023-04-16T02:13:14;30.98;;;13.30;;
73841;SDS011;62184;52.006;5.924;2023-04-16T02:15:43;32.47;;;13.73;;
73841;SDS011;62184;52.006;5.924;2023-04-16T02:18:10;35.00;;;13.85;;
73841;SDS011;62184;52.006;5.924;2023-04-16T02:20:38;37.67;;;14.23;;
73841;SDS011;62184;52.006;5.924;2023-04-16T02:23:05;35.95;;;14.25;;
73841;SDS011;62184;52.006;5.924;2023-04-16T02:25:31;34.13;;;14.85;;
73841;SDS011;62184;52.006;5.924;2023-04-16T02:28:05;34.83;;;15.35;;
73841;SDS011;62184;52.006;5.924;2023-04-16T02:30:31;41.03;;;15.40;;
73841;SDS011;62184;52.006;5.924;2023-04-16T02:32:58;36.17;;;15.50;;
73841;SDS011;62184;52.006;5.924;2023-04-16T02:35:24;37.42;;;15.68;;
73841;SDS011;62184;52.006;5.924;2023-04-16T02:37:51;37.97;;;15.50;;
73841;SDS011;62184;52.006;5.924;2023-04-16T02:40:17;41.15;;;15.70;;
73841;SDS011;62184;52.006;5.924;2023-04-16T02:42:44;36.35;;;15.15;;
73841;SDS011;62184;52.006;5.924;2023-04-16T02:45:13;42.97;;;16.15;;
73841;SDS011;62184;52.006;5.924;2023-04-16T02:47:41;39.83;;;15.98;;
73841;SDS011;62184;52.006;5.924;2023-04-16T02:50:07;42.08;;;16.33;;
73841;SDS011;62184;52.006;5.924;2023-04-16T02:52:36;42.58;;;16.13;;
73841;SDS011;62184;52.006;5.924;2023-04-16T02:55:02;43.07;;;16.33;;
73841;SDS011;62184;52.006;5.924;2023-04-16T02:57:30;38.55;;;16.25;;
73841;SDS011;62184;52.006;5.924;2023-04-16T02:59:56;40.72;;;16.50;;
73841;SDS011;62184;52.006;5.924;2023-04-16T03:02:25;42.33;;;16.58;;
73841;SDS011;62184;52.006;5.924;2023-04-16T03:04:52;39.60;;;15.83;;
73841;SDS011;62184;52.006;5.924;2023-04-16T03:07:18;42.20;;;16.02;;
73841;SDS011;62184;52.006;5.924;2023-04-16T03:09:45;36.55;;;15.68;;
73841;SDS011;62184;52.006;5.924;2023-04-16T03:12:11;39.55;;;16.05;;
73841;SDS011;62184;52.006;5.924;2023-04-16T03:14:38;37.95;;;15.48;;
73841;SDS011;62184;52.006;5.924;2023-04-16T03:17:04;40.45;;;15.98;;
73841;SDS011;62184;52.006;5.924;2023-04-16T03:19:33;43.53;;;16.55;;
73841;SDS011;62184;52.006;5.924;2023-04-16T03:21:59;39.90;;;16.42;;
73841;SDS011;62184;52.006;5.924;2023-04-16T03:24:26;41.67;;;15.97;;
73841;SDS011;62184;52.006;5.924;2023-04-16T03:26:52;43.60;;;16.87;;
73841;SDS011;62184;52.006;5.924;2023-04-16T03:29:18;46.37;;;17.47;;
73841;SDS011;62184;52.006;5.924;2023-04-16T03:31:45;43.10;;;16.53;;
73841;SDS011;62184;52.006;5.924;2023-04-16T03:34:11;43.40;;;16.27;;
73841;SDS011;62184;52.006;5.924;2023-04-16T03:36:40;38.97;;;16.47;;
73841;SDS011;62184;52.006;5.924;2023-04-16T03:39:07;41.78;;;17.02;;
73841;SDS011;62184;52.006;5.924;2023-04-16T03:41:33;43.75;;;17.38;;
73841;SDS011;62184;52.006;5.924;2023-04-16T03:43:59;41.38;;;16.92;;
73841;SDS011;62184;52.006;5.924;2023-04-16T03:46:26;44.05;;;17.35;;
73841;SDS011;62184;52.006;5.924;2023-04-16T03:48:52;41.45;;;17.25;;
73841;SDS011;62184;52.006;5.924;2023-04-16T03:51:19;42.30;;;16.95;;
73841;SDS011;62184;52.006;5.924;2023-04-16T03:53:48;44.63;;;17.75;;
73841;SDS011;62184;52.006;5.924;2023-04-16T03:56:14;44.50;;;17.80;;
73841;SDS011;62184;52.006;5.924;2023-04-16T03:58:40;45.25;;;17.08;;
73841;SDS011;62184;52.006;5.924;2023-04-16T04:01:07;44.92;;;17.40;;
73841;SDS011;62184;52.006;5.924;2023-04-16T04:03:33;45.33;;;17.65;;
73841;SDS011;62184;52.006;5.924;2023-04-16T04:05:59;49.67;;;18.30;;
73841;SDS011;62184;52.006;5.924;2023-04-16T04:08:26;47.38;;;17.67;;
73841;SDS011;62184;52.006;5.924;2023-04-16T04:10:57;47.28;;;17.73;;
73841;SDS011;62184;52.006;5.924;2023-04-16T04:13:23;51.03;;;18.27;;
73841;SDS011;62184;52.006;5.924;2023-04-16T04:15:50;50.07;;;17.47;;
73841;SDS011;62184;52.006;5.924;2023-04-16T04:18:16;51.67;;;18.53;;
73841;SDS011;62184;52.006;5.924;2023-04-16T04:20:43;45.80;;;17.27;;
73841;SDS011;62184;52.006;5.924;2023-04-16T04:23:10;46.38;;;17.65;;
73841;SDS011;62184;52.006;5.924;2023-04-16T04:25:37;47.58;;;17.95;;
73841;SDS011;62184;52.006;5.924;2023-04-16T04:28:06;45.80;;;17.52;;
73841;SDS011;62184;52.006;5.924;2023-04-16T04:30:32;53.35;;;18.55;;
73841;SDS011;62184;52.006;5.924;2023-04-16T04:32:59;53.25;;;19.25;;
73841;SDS011;62184;52.006;5.924;2023-04-16T04:35:25;49.13;;;18.60;;
73841;SDS011;62184;52.006;5.924;2023-04-16T04:37:52;51.00;;;18.23;;
73841;SDS011;62184;52.006;5.924;2023-04-16T04:40:18;50.47;;;18.08;;
73841;SDS011;62184;52.006;5.924;2023-04-16T04:42:45;52.70;;;18.03;;
73841;SDS011;62184;52.006;5.924;2023-04-16T04:45:14;50.00;;;18.27;;
73841;SDS011;62184;52.006;5.924;2023-04-16T04:47:41;52.28;;;18.05;;
73841;SDS011;62184;52.006;5.924;2023-04-16T04:50:08;49.55;;;17.92;;
73841;SDS011;62184;52.006;5.924;2023-04-16T04:52:35;54.75;;;18.48;;
73841;SDS011;62184;52.006;5.924;2023-04-16T04:55:02;56.03;;;18.55;;
73841;SDS011;62184;52.006;5.924;2023-04-16T04:57:28;49.10;;;18.38;;
73841;SDS011;62184;52.006;5.924;2023-04-16T04:59:55;43.63;;;17.90;;
73841;SDS011;62184;52.006;5.924;2023-04-16T05:02:24;50.13;;;18.48;;
73841;SDS011;62184;52.006;5.924;2023-04-16T05:04:50;45.47;;;18.40;;
73841;SDS011;62184;52.006;5.924;2023-04-16T05:07:17;46.75;;;18.40;;
73841;SDS011;62184;52.006;5.924;2023-04-16T05:09:43;47.38;;;18.13;;
73841;SDS011;62184;52.006;5.924;2023-04-16T05:12:09;45.75;;;18.67;;
73841;SDS011;62184;52.006;5.924;2023-04-16T05:14:36;49.83;;;18.70;;
73841;SDS011;62184;52.006;5.924;2023-04-16T05:17:02;47.60;;;18.48;;
73841;SDS011;62184;52.006;5.924;2023-04-16T05:19:31;50.53;;;19.00;;
73841;SDS011;62184;52.006;5.924;2023-04-16T05:21:58;45.53;;;19.20;;
73841;SDS011;62184;52.006;5.924;2023-04-16T05:24:24;48.85;;;19.52;;
73841;SDS011;62184;52.006;5.924;2023-04-16T05:26:51;44.22;;;18.55;;
73841;SDS011;62184;52.006;5.924;2023-04-16T05:29:17;55.05;;;19.95;;
73841;SDS011;62184;52.006;5.924;2023-04-16T05:31:43;50.22;;;18.98;;
73841;SDS011;62184;52.006;5.924;2023-04-16T05:34:10;56.58;;;20.02;;
73841;SDS011;62184;52.006;5.924;2023-04-16T05:36:39;54.10;;;18.97;;
73841;SDS011;62184;52.006;5.924;2023-04-16T05:39:06;53.15;;;20.27;;
73841;SDS011;62184;52.006;5.924;2023-04-16T05:41:32;53.80;;;20.17;;
73841;SDS011;62184;52.006;5.924;2023-04-16T05:43:59;59.17;;;19.97;;
73841;SDS011;62184;52.006;5.924;2023-04-16T05:46:26;53.17;;;20.37;;
73841;SDS011;62184;52.006;5.924;2023-04-16T05:48:52;47.60;;;19.40;;
73841;SDS011;62184;52.006;5.924;2023-04-16T05:51:19;53.15;;;20.25;;
73841;SDS011;62184;52.006;5.924;2023-04-16T05:53:48;53.95;;;20.15;;
73841;SDS011;62184;52.006;5.924;2023-04-16T05:56:14;45.87;;;19.30;;
73841;SDS011;62184;52.006;5.924;2023-04-16T05:58:41;49.07;;;20.07;;
73841;SDS011;62184;52.006;5.924;2023-04-16T06:01:07;50.20;;;19.57;;
73841;SDS011;62184;52.006;5.924;2023-04-16T06:03:35;44.17;;;19.23;;
73841;SDS011;62184;52.006;5.924;2023-04-16T06:06:02;42.63;;;18.83;;
73841;SDS011;62184;52.006;5.924;2023-04-16T06:08:28;42.63;;;18.60;;
73841;SDS011;62184;52.006;5.924;2023-04-16T06:10:57;42.30;;;18.73;;
73841;SDS011;62184;52.006;5.924;2023-04-16T06:13:24;40.87;;;18.30;;
73841;SDS011;62184;52.006;5.924;2023-04-16T06:15:51;39.47;;;18.93;;
73841;SDS011;62184;52.006;5.924;2023-04-16T06:18:17;39.87;;;18.30;;
73841;SDS011;62184;52.006;5.924;2023-04-16T06:20:43;38.07;;;18.70;;
73841;SDS011;62184;52.006;5.924;2023-04-16T06:23:17;36.20;;;17.45;;
73841;SDS011;62184;52.006;5.924;2023-04-16T06:25:43;35.25;;;17.58;;
73841;SDS011;62184;52.006;5.924;2023-04-16T06:28:12;38.05;;;18.27;;
73841;SDS011;62184;52.006;5.924;2023-04-16T06:30:39;39.10;;;17.97;;
73841;SDS011;62184;52.006;5.924;2023-04-16T06:33:05;35.87;;;17.23;;
73841;SDS011;62184;52.006;5.924;2023-04-16T06:35:32;37.15;;;18.20;;
73841;SDS011;62184;52.006;5.924;2023-04-16T06:37:58;39.13;;;18.25;;
73841;SDS011;62184;52.006;5.924;2023-04-16T06:40:25;36.55;;;18.27;;
73841;SDS011;62184;52.006;5.924;2023-04-16T06:42:51;34.13;;;17.00;;
73841;SDS011;62184;52.006;5.924;2023-04-16T06:45:21;33.83;;;17.47;;
73841;SDS011;62184;52.006;5.924;2023-04-16T06:47:47;29.55;;;16.63;;
73841;SDS011;62184;52.006;5.924;2023-04-16T06:50:14;35.90;;;17.13;;
73841;SDS011;62184;52.006;5.924;2023-04-16T06:52:40;32.35;;;16.40;;
73841;SDS011;62184;52.006;5.924;2023-04-16T06:55:07;30.70;;;16.50;;
73841;SDS011;62184;52.006;5.924;2023-04-16T06:57:34;29.90;;;15.80;;
73841;SDS011;62184;52.006;5.924;2023-04-16T07:00:01;30.63;;;16.25;;
73841;SDS011;62184;52.006;5.924;2023-04-16T07:02:30;30.65;;;16.55;;
73841;SDS011;62184;52.006;5.924;2023-04-16T07:04:57;33.65;;;16.55;;
73841;SDS011;62184;52.006;5.924;2023-04-16T07:07:23;31.00;;;16.40;;
73841;SDS011;62184;52.006;5.924;2023-04-16T07:09:50;31.48;;;16.75;;
73841;SDS011;62184;52.006;5.924;2023-04-16T07:12:17;33.10;;;17.20;;
73841;SDS011;62184;52.006;5.924;2023-04-16T07:14:45;29.13;;;16.23;;
73841;SDS011;62184;52.006;5.924;2023-04-16T07:17:11;30.95;;;16.83;;
73841;SDS011;62184;52.006;5.924;2023-04-16T07:19:40;31.40;;;17.08;;
73841;SDS011;62184;52.006;5.924;2023-04-16T07:22:07;31.33;;;16.67;;
73841;SDS011;62184;52.006;5.924;2023-04-16T07:24:33;32.03;;;17.30;;
73841;SDS011;62184;52.006;5.924;2023-04-16T07:27:00;34.55;;;17.08;;
73841;SDS011;62184;52.006;5.924;2023-04-16T07:29:26;30.40;;;16.60;;
73841;SDS011;62184;52.006;5.924;2023-04-16T07:31:52;29.27;;;16.65;;
73841;SDS011;62184;52.006;5.924;2023-04-16T07:34:19;31.40;;;16.63;;
73841;SDS011;62184;52.006;5.924;2023-04-16T07:36:48;30.42;;;16.77;;
73841;SDS011;62184;52.006;5.924;2023-04-16T07:39:15;30.83;;;17.08;;
73841;SDS011;62184;52.006;5.924;2023-04-16T07:41:41;30.30;;;16.80;;
73841;SDS011;62184;52.006;5.924;2023-04-16T07:44:08;29.10;;;16.43;;
73841;SDS011;62184;52.006;5.924;2023-04-16T07:46:34;31.27;;;16.58;;
73841;SDS011;62184;52.006;5.924;2023-04-16T07:49:01;31.27;;;16.77;;
73841;SDS011;62184;52.006;5.924;2023-04-16T07:51:27;29.80;;;16.40;;
73841;SDS011;62184;52.006;5.924;2023-04-16T07:53:57;29.67;;;17.02;;
73841;SDS011;62184;52.006;5.924;2023-04-16T07:56:23;30.10;;;17.27;;
73841;SDS011;62184;52.006;5.924;2023-04-16T07:58:50;26.95;;;16.08;;
73841;SDS011;62184;52.006;5.924;2023-04-16T08:01:16;30.30;;;17.08;;
73841;SDS011;62184;52.006;5.924;2023-04-16T08:03:43;28.50;;;16.33;;
73841;SDS011;62184;52.006;5.924;2023-04-16T08:06:09;30.45;;;16.35;;
73841;SDS011;62184;52.006;5.924;2023-04-16T08:08:35;29.20;;;15.97;;
73841;SDS011;62184;52.006;5.924;2023-04-16T08:11:04;29.87;;;16.30;;
73841;SDS011;62184;52.006;5.924;2023-04-16T08:13:31;29.45;;;16.10;;
73841;SDS011;62184;52.006;5.924;2023-04-16T08:15:57;31.48;;;16.83;;
73841;SDS011;62184;52.006;5.924;2023-04-16T08:18:24;30.40;;;16.52;;
73841;SDS011;62184;52.006;5.924;2023-04-16T08:20:50;30.10;;;16.17;;
73841;SDS011;62184;52.006;5.924;2023-04-16T08:23:17;33.33;;;16.67;;
73841;SDS011;62184;52.006;5.924;2023-04-16T08:25:43;30.67;;;16.93;;
73841;SDS011;62184;52.006;5.924;2023-04-16T08:28:12;29.20;;;16.70;;
73841;SDS011;62184;52.006;5.924;2023-04-16T08:30:38;32.05;;;17.23;;
73841;SDS011;62184;52.006;5.924;2023-04-16T08:33:05;31.05;;;16.65;;
73841;SDS011;62184;52.006;5.924;2023-04-16T08:35:31;33.70;;;16.80;;
73841;SDS011;62184;52.006;5.924;2023-04-16T08:37:58;32.13;;;17.58;;
73841;SDS011;62184;52.006;5.924;2023-04-16T08:40:25;32.78;;;16.73;;
73841;SDS011;62184;52.006;5.924;2023-04-16T08:42:55;34.17;;;17.27;;
73841;SDS011;62184;52.006;5.924;2023-04-16T08:45:27;33.90;;;17.77;;
73841;SDS011;62184;52.006;5.924;2023-04-16T08:47:56;34.88;;;18.35;;
73841;SDS011;62184;52.006;5.924;2023-04-16T08:50:23;34.20;;;18.08;;
73841;SDS011;62184;52.006;5.924;2023-04-16T08:52:52;35.40;;;18.15;;
73841;SDS011;62184;52.006;5.924;2023-04-16T08:55:24;36.27;;;18.93;;
73841;SDS011;62184;52.006;5.924;2023-04-16T08:57:57;35.95;;;18.42;;
73841;SDS011;62184;52.006;5.924;2023-04-16T09:00:28;33.85;;;17.95;;
73841;SDS011;62184;52.006;5.924;2023-04-16T09:02:58;32.83;;;18.00;;
73841;SDS011;62184;52.006;5.924;2023-04-16T09:05:25;33.53;;;18.60;;
73841;SDS011;62184;52.006;5.924;2023-04-16T09:07:54;33.50;;;17.65;;
73841;SDS011;62184;52.006;5.924;2023-04-16T09:10:20;32.45;;;18.27;;
73841;SDS011;62184;52.006;5.924;2023-04-16T09:12:47;35.95;;;18.77;;
73841;SDS011;62184;52.006;5.924;2023-04-16T09:15:14;33.65;;;17.80;;
73841;SDS011;62184;52.006;5.924;2023-04-16T09:17:43;35.42;;;18.80;;
73841;SDS011;62184;52.006;5.924;2023-04-16T09:20:09;33.53;;;18.33;;
73841;SDS011;62184;52.006;5.924;2023-04-16T09:22:36;39.05;;;19.65;;
73841;SDS011;62184;52.006;5.924;2023-04-16T09:25:04;36.08;;;19.40;;
73841;SDS011;62184;52.006;5.924;2023-04-16T09:27:31;38.15;;;19.40;;
73841;SDS011;62184;52.006;5.924;2023-04-16T09:29:58;34.92;;;19.40;;
73841;SDS011;62184;52.006;5.924;2023-04-16T09:32:25;34.20;;;18.63;;
73841;SDS011;62184;52.006;5.924;2023-04-16T09:34:56;34.58;;;18.98;;
73841;SDS011;62184;52.006;5.924;2023-04-16T09:37:23;36.03;;;19.13;;
73841;SDS011;62184;52.006;5.924;2023-04-16T09:39:52;33.25;;;18.85;;
73841;SDS011;62184;52.006;5.924;2023-04-16T09:42:22;32.75;;;18.20;;
73841;SDS011;62184;52.006;5.924;2023-04-16T09:44:51;35.47;;;19.07;;
73841;SDS011;62184;52.006;5.924;2023-04-16T09:47:18;34.15;;;18.23;;
73841;SDS011;62184;52.006;5.924;2023-04-16T09:49:45;33.13;;;18.63;;
73841;SDS011;62184;52.006;5.924;2023-04-16T09:52:15;34.13;;;18.30;;
73841;SDS011;62184;52.006;5.924;2023-04-16T09:54:45;34.10;;;17.88;;
73841;SDS011;62184;52.006;5.924;2023-04-16T09:57:13;32.63;;;18.27;;
73841;SDS011;62184;52.006;5.924;2023-04-16T09:59:40;31.45;;;18.60;;
73841;SDS011;62184;52.006;5.924;2023-04-16T10:02:06;32.90;;;18.15;;
73841;SDS011;62184;52.006;5.924;2023-04-16T10:04:43;33.43;;;18.30;;
73841;SDS011;62184;52.006;5.924;2023-04-16T10:07:16;34.80;;;18.98;;
73841;SDS011;62184;52.006;5.924;2023-04-16T10:09:45;32.15;;;18.33;;
73841;SDS011;62184;52.006;5.924;2023-04-16T10:12:12;30.80;;;17.85;;
73841;SDS011;62184;52.006;5.924;2023-04-16T10:14:39;31.15;;;17.50;;
73841;SDS011;62184;52.006;5.924;2023-04-16T10:17:06;29.03;;;18.33;;
73841;SDS011;62184;52.006;5.924;2023-04-16T10:19:33;29.77;;;18.20;;
73841;SDS011;62184;52.006;5.924;2023-04-16T10:22:00;30.63;;;18.00;;
73841;SDS011;62184;52.006;5.924;2023-04-16T10:24:31;31.17;;;18.40;;
73841;SDS011;62184;52.006;5.924;2023-04-16T10:26:59;30.17;;;17.67;;
73841;SDS011;62184;52.006;5.924;2023-04-16T10:29:26;30.23;;;17.63;;
73841;SDS011;62184;52.006;5.924;2023-04-16T10:31:56;30.50;;;17.27;;
73841;SDS011;62184;52.006;5.924;2023-04-16T10:34:23;30.00;;;17.65;;
73841;SDS011;62184;52.006;5.924;2023-04-16T10:36:51;31.08;;;17.50;;
73841;SDS011;62184;52.006;5.924;2023-04-16T10:39:20;28.53;;;17.07;;
73841;SDS011;62184;52.006;5.924;2023-04-16T10:42:05;30.33;;;17.05;;
73841;SDS011;62184;52.006;5.924;2023-04-16T10:44:33;30.42;;;17.42;;
73841;SDS011;62184;52.006;5.924;2023-04-16T10:47:00;32.45;;;17.48;;
73841;SDS011;62184;52.006;5.924;2023-04-16T10:49:26;29.63;;;17.35;;
73841;SDS011;62184;52.006;5.924;2023-04-16T10:51:53;31.15;;;17.80;;
73841;SDS011;62184;52.006;5.924;2023-04-16T10:54:23;28.77;;;16.83;;
73841;SDS011;62184;52.006;5.924;2023-04-16T10:56:54;30.15;;;17.10;;
73841;SDS011;62184;52.006;5.924;2023-04-16T10:59:23;30.02;;;17.33;;
73841;SDS011;62184;52.006;5.924;2023-04-16T11:01:55;28.83;;;17.33;;
73841;SDS011;62184;52.006;5.924;2023-04-16T11:07:14;29.23;;;17.43;;
73841;SDS011;62184;52.006;5.924;2023-04-16T11:09:50;27.90;;;17.10;;
73841;SDS011;62184;52.006;5.924;2023-04-16T11:12:24;29.70;;;17.10;;
73841;SDS011;62184;52.006;5.924;2023-04-16T11:14:59;27.48;;;17.50;;
73841;SDS011;62184;52.006;5.924;2023-04-16T11:17:27;28.40;;;17.17;;
73841;SDS011;62184;52.006;5.924;2023-04-16T11:20:02;28.10;;;17.35;;
73841;SDS011;62184;52.006;5.924;2023-04-16T11:22:33;27.52;;;17.23;;
73841;SDS011;62184;52.006;5.924;2023-04-16T11:25:00;27.60;;;17.10;;
73841;SDS011;62184;52.006;5.924;2023-04-16T11:27:31;27.73;;;17.45;;
73841;SDS011;62184;52.006;5.924;2023-04-16T11:29:58;27.05;;;16.58;;
73841;SDS011;62184;52.006;5.924;2023-04-16T11:32:26;26.10;;;16.23;;
73841;SDS011;62184;52.006;5.924;2023-04-16T11:34:55;26.05;;;16.42;;
73841;SDS011;62184;52.006;5.924;2023-04-16T11:37:30;26.52;;;16.48;;
73841;SDS011;62184;52.006;5.924;2023-04-16T11:39:57;26.15;;;16.33;;
73841;SDS011;62184;52.006;5.924;2023-04-16T11:42:23;25.48;;;17.30;;
73841;SDS011;62184;52.006;5.924;2023-04-16T11:44:53;26.93;;;17.43;;
73841;SDS011;62184;52.006;5.924;2023-04-16T11:47:22;27.92;;;16.55;;
73841;SDS011;62184;52.006;5.924;2023-04-16T11:49:49;26.45;;;16.08;;
73841;SDS011;62184;52.006;5.924;2023-04-16T11:52:25;26.37;;;16.33;;
73841;SDS011;62184;52.006;5.924;2023-04-16T11:54:53;26.02;;;16.10;;
73841;SDS011;62184;52.006;5.924;2023-04-16T11:57:22;26.42;;;15.85;;
73841;SDS011;62184;52.006;5.924;2023-04-16T11:59:53;26.30;;;16.30;;
73841;SDS011;62184;52.006;5.924;2023-04-16T12:02:36;27.52;;;16.08;;
73841;SDS011;62184;52.006;5.924;2023-04-16T12:05:04;25.73;;;15.13;;
73841;SDS011;62184;52.006;5.924;2023-04-16T12:08:02;26.15;;;15.18;;
73841;SDS011;62184;52.006;5.924;2023-04-16T12:10:32;24.90;;;15.40;;
73841;SDS011;62184;52.006;5.924;2023-04-16T12:13:10;26.03;;;14.97;;
73841;SDS011;62184;52.006;5.924;2023-04-16T12:15:44;24.75;;;15.45;;
73841;SDS011;62184;52.006;5.924;2023-04-16T12:18:12;26.33;;;15.35;;
73841;SDS011;62184;52.006;5.924;2023-04-16T12:20:39;24.90;;;14.98;;
73841;SDS011;62184;52.006;5.924;2023-04-16T12:23:09;24.50;;;15.10;;
73841;SDS011;62184;52.006;5.924;2023-04-16T12:25:46;25.73;;;14.82;;
73841;SDS011;62184;52.006;5.924;2023-04-16T12:28:13;23.30;;;15.87;;
73841;SDS011;62184;52.006;5.924;2023-04-16T12:30:47;26.10;;;15.20;;
73841;SDS011;62184;52.006;5.924;2023-04-16T12:33:15;23.45;;;14.48;;
73841;SDS011;62184;52.006;5.924;2023-04-16T12:35:43;24.90;;;15.25;;
73841;SDS011;62184;52.006;5.924;2023-04-16T12:38:12;23.27;;;14.85;;
73841;SDS011;62184;52.006;5.924;2023-04-16T12:40:39;25.70;;;15.02;;
73841;SDS011;62184;52.006;5.924;2023-04-16T12:43:06;26.25;;;15.73;;
73841;SDS011;62184;52.006;5.924;2023-04-16T12:45:32;25.58;;;15.00;;
73841;SDS011;62184;52.006;5.924;2023-04-16T12:47:59;23.08;;;14.68;;
73841;SDS011;62184;52.006;5.924;2023-04-16T12:50:25;23.95;;;15.35;;
73841;SDS011;62184;52.006;5.924;2023-04-16T12:52:52;24.23;;;15.52;;
73841;SDS011;62184;52.006;5.924;2023-04-16T12:55:22;25.55;;;15.95;;
73841;SDS011;62184;52.006;5.924;2023-04-16T12:57:49;25.00;;;14.90;;
73841;SDS011;62184;52.006;5.924;2023-04-16T13:00:16;25.40;;;15.60;;
73841;SDS011;62184;52.006;5.924;2023-04-16T13:02:43;23.48;;;14.80;;
73841;SDS011;62184;52.006;5.924;2023-04-16T13:05:10;25.40;;;15.97;;
73841;SDS011;62184;52.006;5.924;2023-04-16T13:07:36;24.58;;;15.70;;
73841;SDS011;62184;52.006;5.924;2023-04-16T13:10:04;23.08;;;14.98;;
73841;SDS011;62184;52.006;5.924;2023-04-16T13:12:34;24.38;;;15.35;;
73841;SDS011;62184;52.006;5.924;2023-04-16T13:15:00;25.10;;;15.73;;
73841;SDS011;62184;52.006;5.924;2023-04-16T13:17:27;24.42;;;15.40;;
73841;SDS011;62184;52.006;5.924;2023-04-16T13:19:53;22.95;;;15.55;;
73841;SDS011;62184;52.006;5.924;2023-04-16T13:22:19;23.80;;;15.82;;
73841;SDS011;62184;52.006;5.924;2023-04-16T13:24:46;25.65;;;16.00;;
73841;SDS011;62184;52.006;5.924;2023-04-16T13:27:13;22.77;;;15.33;;
73841;SDS011;62184;52.006;5.924;2023-04-16T13:29:41;22.13;;;14.60;;
73841;SDS011;62184;52.006;5.924;2023-04-16T13:32:08;25.00;;;15.67;;
73841;SDS011;62184;52.006;5.924;2023-04-16T13:34:34;24.77;;;16.03;;
73841;SDS011;62184;52.006;5.924;2023-04-16T13:37:01;23.77;;;15.68;;
73841;SDS011;62184;52.006;5.924;2023-04-16T13:39:27;23.92;;;15.43;;
73841;SDS011;62184;52.006;5.924;2023-04-16T13:41:54;23.50;;;15.57;;
73841;SDS011;62184;52.006;5.924;2023-04-16T13:44:20;24.17;;;15.73;;
73841;SDS011;62184;52.006;5.924;2023-04-16T13:46:49;23.38;;;15.35;;
73841;SDS011;62184;52.006;5.924;2023-04-16T13:49:16;24.20;;;14.95;;
73841;SDS011;62184;52.006;5.924;2023-04-16T13:51:42;24.13;;;15.27;;
73841;SDS011;62184;52.006;5.924;2023-04-16T13:54:08;21.98;;;15.10;;
73841;SDS011;62184;52.006;5.924;2023-04-16T13:56:35;22.77;;;14.77;;
73841;SDS011;62184;52.006;5.924;2023-04-16T13:59:01;22.27;;;14.98;;
73841;SDS011;62184;52.006;5.924;2023-04-16T14:01:29;19.98;;;14.30;;
73841;SDS011;62184;52.006;5.924;2023-04-16T14:03:59;22.85;;;14.57;;
73841;SDS011;62184;52.006;5.924;2023-04-16T14:06:26;21.77;;;13.95;;
73841;SDS011;62184;52.006;5.924;2023-04-16T14:08:52;21.40;;;14.80;;
73841;SDS011;62184;52.006;5.924;2023-04-16T14:11:18;20.95;;;14.65;;
73841;SDS011;62184;52.006;5.924;2023-04-16T14:13:45;22.00;;;15.10;;
73841;SDS011;62184;52.006;5.924;2023-04-16T14:16:11;22.37;;;14.50;;
73841;SDS011;62184;52.006;5.924;2023-04-16T14:18:39;22.30;;;14.40;;
73841;SDS011;62184;52.006;5.924;2023-04-16T14:21:09;23.90;;;14.73;;
73841;SDS011;62184;52.006;5.924;2023-04-16T14:23:35;20.27;;;14.20;;
73841;SDS011;62184;52.006;5.924;2023-04-16T14:26:02;23.25;;;14.50;;
73841;SDS011;62184;52.006;5.924;2023-04-16T14:28:28;22.55;;;14.77;;